Tiempo atmosférico en la estación meteorológica de Tuineje, Las Palmas (1 m.)



Fecha
DESCASC
Temp. máxima en grados centígrados (hora)
DESCASC
Temp. mínima en grados centígrados (hora)
DESCASC
Temp. media en grados centígrados
DESCASC
Racha de viento máxima en m/sg (hora)
DESCASC
Velocidad máxima media en intervalos de 10 minutos(hora)
DESCASC
Precipitaciones diarias en mm
DESCASC
Precipitaciones de 00:00 a 06:00 en mm
DESCASC
Precipitaciones de 06:00 a 12:00 en mm
DESCASC
Precipitaciones de 12:00 a 18:00 en mm
DESCASC
Precipitaciones de 18:00 a 24:00 en mm
DESCASC

Gráficas

Temp. máximas Temp. mínimas Temp. medias Precipitaciones Rachas de viento máximas Velocidades máximas media en intervalos de 10 minutos

Datos horarios

Fecha y hora oficial Temperatura (ºC) Velocidad del viento (km/h) Dirección del viento Racha (km/h) Dirección de racha Precipitación (mm) Presión (hPa) Tendencia (hPa) Humedad (%)
2020-11-23 23:00:00 22.5 8 Norte 17 Este 0 -- -- 39
2020-11-23 22:00:00 22.1 8 Nordeste 14 Nordeste 0 -- -- 46
2020-11-23 21:00:00 22.5 7 Nordeste 10 Nordeste 0 -- -- 40
2020-11-23 20:00:00 22.4 9 Nordeste 11 Nordeste 0 -- -- 41
2020-11-23 19:00:00 23.3 5 Nordeste 8 Este 0 -- -- 33
2020-11-23 18:00:00 22.7 4 Este 8 Este 0 -- -- 44
2020-11-23 17:00:00 23.6 3 Sudeste 9 Sudeste 0 -- -- 45
2020-11-23 16:00:00 23.3 3 Este 10 Este 0 -- -- 47
2020-11-23 15:00:00 23.6 5 Este 11 Este 0 -- -- 50
2020-11-23 14:00:00 24.1 5 Sudeste 14 Este 0 -- -- 51
2020-11-23 13:00:00 23.3 9 Este 22 Este 0 -- -- 52
2020-11-23 12:00:00 22.5 12 Este 26 Este 0 -- -- 53
2020-11-23 11:00:00 22 16 Este 27 Este 0 -- -- 61
2020-11-23 10:00:00 21.7 17 Este 31 Este 0 -- -- 68
2020-11-23 09:00:00 20.7 8 Nordeste 17 Nordeste 0 -- -- 76
2020-11-23 08:00:00 19.2 9 Nordeste 17 Nordeste 0 -- -- 77
2020-11-23 07:00:00 18.8 10 Nordeste 19 Nordeste 0 -- -- 77
2020-11-23 06:00:00 19 9 Nordeste 21 Norte 0 -- -- 75
2020-11-23 05:00:00 20.4 13 Norte 26 Norte 0 -- -- 68
2020-11-23 04:00:00 19.7 14 Norte 26 Norte 0 -- -- 81
2020-11-23 03:00:00 19.9 10 Norte 21 Norte 0 -- -- 79
2020-11-23 02:00:00 20.3 11 Norte 17 Norte 0 -- -- 74
2020-11-23 01:00:00 20.6 11 Nordeste 17 Nordeste 0 -- -- 71
2020-11-23 00:00:00 21 9 Nordeste 15 Norte 0 -- -- 49
2020-11-22 23:00:00 19.9 11 Nordeste 22 Norte 0 -- -- 62
2020-11-22 22:00:00 21.5 15 Norte 30 Norte 0 -- -- 50
2020-11-22 21:00:00 21.1 18 Norte 27 Norte 0 -- -- 61
2020-11-22 20:00:00 20.7 18 Norte 28 Norte 0 -- -- 72
2020-11-22 19:00:00 21 15 Norte 23 Norte 0 -- -- 70
2020-11-22 18:00:00 21.9 15 Norte 22 Norte 0 -- -- 65
2020-11-22 17:00:00 23.8 12 Nordeste 21 Este 0 -- -- 49
2020-11-22 16:00:00 24.1 11 Este 37 Nordeste 0 -- -- 53
2020-11-22 15:00:00 21.7 24 Este 39 Este 0 -- -- 74
2020-11-22 14:00:00 22.1 20 Este 37 Este 0 -- -- 70
2020-11-22 13:00:00 22.3 18 Este 36 Este 0 -- -- 72
2020-11-22 12:00:00 21.9 19 Este 38 Este 0 -- -- 72
2020-11-22 11:00:00 22.3 13 Este 28 Este 0 -- -- 69
2020-11-22 10:00:00 22.7 11 Nordeste 23 Nordeste 0 -- -- 65
2020-11-22 09:00:00 21.7 11 Nordeste 18 Norte 0 -- -- 72
2020-11-22 08:00:00 20.3 11 Norte 24 Norte 0 -- -- 78
2020-11-22 07:00:00 20 12 Norte 25 Noroeste 0 -- -- 77
2020-11-22 06:00:00 20.1 14 Norte 32 Norte 0 -- -- 77
2020-11-22 05:00:00 20.4 15 Norte 24 Norte 0 -- -- 74
2020-11-22 04:00:00 20.2 7 Nordeste 20 Norte 0 -- -- 55
2020-11-22 03:00:00 21.5 12 Nordeste 19 Nordeste 0 -- -- 46
2020-11-22 02:00:00 22.5 12 Norte 28 Norte 0 -- -- 40
2020-11-22 01:00:00 22.4 13 Norte 26 Norte 0 -- -- 43
2020-11-22 00:00:00 21.5 16 Norte 28 Norte 0 -- -- 55
2020-11-21 23:00:00 22.2 12 Norte 21 Norte 0 -- -- 44
2020-11-21 22:00:00 22.6 11 Norte 22 Nordeste 0 -- -- 36
2020-11-21 21:00:00 23.4 15 Nordeste 30 Nordeste 0 -- -- 32
2020-11-21 20:00:00 23.8 17 Nordeste 31 Norte 0 -- -- 31
2020-11-21 19:00:00 24 15 Nordeste 28 Nordeste 0 -- -- 31
2020-11-21 18:00:00 24.4 17 Nordeste 29 Nordeste 0 -- -- 30
2020-11-21 17:00:00 25.1 18 Nordeste 36 Nordeste 0 -- -- 31
2020-11-21 16:00:00 25.1 17 Nordeste 32 Nordeste 0 -- -- 30
2020-11-21 15:00:00 23.8 12 Este 22 Este 0 -- -- 42
2020-11-21 14:00:00 23.5 12 Este 23 Este 0 -- -- 44
2020-11-21 13:00:00 23.8 10 Este 24 Este 0 -- -- 45
2020-11-21 12:00:00 23.2 14 Este 24 Este 0 -- -- 48
2020-11-21 11:00:00 23.7 12 Este 23 Este 0 -- -- 48
2020-11-21 10:00:00 23.4 12 Nordeste 23 Nordeste 0 -- -- 48
2020-11-21 09:00:00 22.6 12 Nordeste 28 Este 0 -- -- 58
2020-11-21 08:00:00 20.6 10 Norte 22 Norte 0 -- -- 66
2020-11-21 07:00:00 21 15 Nordeste 28 Nordeste 0 -- -- 63
2020-11-21 06:00:00 21.5 14 Nordeste 35 Nordeste 0 -- -- 63
2020-11-21 05:00:00 21.6 21 Nordeste 35 Norte 0 -- -- 63
2020-11-21 04:00:00 21.4 17 Nordeste 36 Nordeste 0 -- -- 63
2020-11-21 03:00:00 21.3 17 Nordeste 41 Nordeste 0 -- -- 68
2020-11-21 02:00:00 21.4 18 Nordeste 46 Nordeste 0 -- -- 70
2020-11-21 01:00:00 22.3 23 Nordeste 50 Nordeste 0 -- -- 53
2020-11-21 00:00:00 23.2 22 Nordeste 51 Nordeste 0 -- -- 47
2020-11-20 23:00:00 23.9 9 Nordeste 19 Nordeste 0 -- -- 37
2020-11-20 22:00:00 22 7 Nordeste 15 Nordeste 0 -- -- 43
2020-11-20 21:00:00 23.2 8 Nordeste 17 Nordeste 0 -- -- 33
2020-11-20 20:00:00 24.3 7 Norte 13 Nordeste 0 -- -- 31
2020-11-20 19:00:00 24.5 8 Nordeste 14 Nordeste 0 -- -- 34
2020-11-20 18:00:00 26.3 10 Nordeste 24 Nordeste 0 -- -- 28
2020-11-20 17:00:00 25.8 6 Nordeste 17 Sudeste 0 -- -- 30
2020-11-20 16:00:00 24.5 9 Este 18 Este 0 -- -- 40
2020-11-20 15:00:00 24.6 9 Este 21 Este 0 -- -- 36
2020-11-20 14:00:00 24.3 9 Este 21 Este 0 -- -- 36
2020-11-20 13:00:00 23.4 10 Este 22 Este 0 -- -- 53
2020-11-20 12:00:00 23 11 Este 23 Este 0 -- -- 59
2020-11-20 11:00:00 22.6 14 Este 28 Este 0 -- -- 61
2020-11-20 10:00:00 22.5 15 Nordeste 30 Este 0 -- -- 61
2020-11-20 09:00:00 22.6 10 Nordeste 22 Nordeste 0 -- -- 59
2020-11-20 08:00:00 20.5 9 Nordeste 20 Nordeste 0 -- -- 70
2020-11-20 07:00:00 19.2 11 Nordeste 19 Nordeste 0 -- -- 78
2020-11-20 06:00:00 18.8 12 Nordeste 20 Nordeste 0 -- -- 80
2020-11-20 05:00:00 19.7 10 Nordeste 17 Norte 0 -- -- 78
2020-11-20 04:00:00 19.8 10 Nordeste 19 Norte 0 -- -- 82
2020-11-20 03:00:00 20 11 Norte 16 Norte 0 -- -- 81
2020-11-20 02:00:00 20 8 Norte 15 Nordeste 0 -- -- 80
2020-11-20 01:00:00 20.2 10 Norte 21 Norte 0 -- -- 79
2020-11-20 00:00:00 20.2 14 Nordeste 24 Norte 0 -- -- 80
2020-11-19 23:00:00 20.4 11 Norte 27 Norte 0 -- -- 79
2020-11-19 22:00:00 20.5 12 Nordeste 20 Norte 0 -- -- 79
2020-11-19 21:00:00 20.8 14 Norte 24 Norte 0 -- -- 78
2020-11-19 20:00:00 21.1 11 Norte 23 Norte 0 -- -- 76
2020-11-19 19:00:00 21.5 10 Norte 23 Norte 0 -- -- 75
2020-11-19 18:00:00 22 16 Nordeste 24 Nordeste 0 -- -- 73
2020-11-19 17:00:00 22.5 15 Nordeste 24 Nordeste 0 -- -- 71
2020-11-19 16:00:00 22.9 16 Este 30 Nordeste 0 -- -- 69
2020-11-19 15:00:00 22.6 21 Este 33 Este 0 -- -- 71
2020-11-19 14:00:00 24.3 18 Nordeste 31 Nordeste 0 -- -- 64
2020-11-19 13:00:00 24.6 17 Nordeste 32 Nordeste 0 -- -- 64
2020-11-19 12:00:00 24.7 18 Nordeste 29 Nordeste 0 -- -- 61
2020-11-19 11:00:00 24.4 15 Nordeste 32 Nordeste 0 -- -- 63
2020-11-19 10:00:00 23.1 19 Nordeste 27 Norte 0 -- -- 68
2020-11-19 09:00:00 21.8 9 Norte 22 Norte 0 -- -- 72
2020-11-19 08:00:00 20.3 13 Nordeste 25 Nordeste 0 -- -- 81
2020-11-19 07:00:00 20.4 12 Norte 23 Norte 0 -- -- 78
2020-11-19 06:00:00 20.3 12 Nordeste 25 Norte 0 -- -- 77
2020-11-19 05:00:00 21 12 Norte 24 Norte 0 -- -- 72
2020-11-19 04:00:00 21 12 Norte 21 Norte 0 -- -- 71
2020-11-19 03:00:00 21.2 10 Norte 19 Norte 0 -- -- 73
2020-11-19 02:00:00 21.7 8 Norte 12 Norte 0 -- -- 59
2020-11-19 01:00:00 22.3 9 Norte 13 Nordeste 0 -- -- 51
2020-11-19 00:00:00 22.5 9 Nordeste 19 Nordeste 0 -- -- 49
2020-11-18 23:00:00 23.3 10 Nordeste 20 Nordeste 0 -- -- 37
2020-11-18 22:00:00 24.7 12 Norte 26 Norte 0 -- -- 32
2020-11-18 21:00:00 24.4 14 Norte 19 Norte 0 -- -- 32
2020-11-18 20:00:00 25.8 12 Norte 27 Norte 0 -- -- 26
2020-11-18 19:00:00 26.7 16 Norte 24 Norte 0 -- -- 28
2020-11-18 18:00:00 27.7 11 Norte 18 Norte 0 -- -- 32
2020-11-18 17:00:00 27.8 3 Sudeste 8 Sur 0 -- -- 34
2020-11-18 16:00:00 27.8 5 Sur 13 Sudoeste 0 -- -- 31
2020-11-18 15:00:00 28.6 9 Sudoeste 15 Sudoeste 0 -- -- 32
2020-11-18 14:00:00 29 6 Sudoeste 10 Sudoeste 0 -- -- 33
2020-11-18 13:00:00 29.7 5 Sudoeste 8 Sudoeste 0 -- -- 29
2020-11-18 12:00:00 28.9 4 Sudoeste 8 Sur 0 -- -- 33
2020-11-18 11:00:00 28.5 3 Sudeste 10 Nordeste 0 -- -- 33
2020-11-18 10:00:00 27 8 Nordeste 13 Nordeste 0 -- -- 32
2020-11-18 09:00:00 23.8 10 Nordeste 15 Nordeste 0 -- -- 35
2020-11-18 08:00:00 21.2 11 Norte 14 Nordeste 0 -- -- 41
2020-11-18 07:00:00 20.7 13 Nordeste 17 Nordeste 0 -- -- 45
2020-11-18 06:00:00 20.9 12 Nordeste 16 Nordeste 0 -- -- 51
2020-11-18 05:00:00 21.1 7 Nordeste 14 Nordeste 0 -- -- 53
2020-11-18 04:00:00 21.8 8 Nordeste 17 Este 0 -- -- 52
2020-11-18 03:00:00 23.8 3 Este 27 Este 0 -- -- 49
2020-11-18 02:00:00 24.9 15 Este 30 Este 0 -- -- 49
2020-11-18 01:00:00 24.9 2 Norte 28 Este 0 -- -- 30
2020-11-18 00:00:00 27.7 13 Norte 21 Norte 0 -- -- 23
2020-11-17 23:00:00 27.3 10 Norte 20 Norte 0 -- -- 26
2020-11-17 22:00:00 27.9 10 Norte 21 Norte 0 -- -- 22
2020-11-17 21:00:00 28.4 13 Norte 20 Norte 0 -- -- 22
2020-11-17 20:00:00 28.6 10 Norte 21 Norte 0 -- -- 23
2020-11-17 19:00:00 29.2 11 Norte 22 Norte 0 -- -- 21
2020-11-17 18:00:00 30.1 9 Norte 18 Este 0 -- -- 22
2020-11-17 17:00:00 29.9 11 Este 19 Este 0 -- -- 26
2020-11-17 16:00:00 26.8 8 Sudeste 16 Sudeste 0 -- -- 46
2020-11-17 15:00:00 27.6 10 Este 17 Sudeste 0 -- -- 41
2020-11-17 14:00:00 27.4 10 Sudeste 24 Este 0 -- -- 39
2020-11-17 13:00:00 26.6 15 Este 29 Este 0 -- -- 39
2020-11-17 12:00:00 26.6 15 Este 31 Este 0 -- -- 41
2020-11-17 11:00:00 26.3 9 Este 19 Este 0 -- -- 50
2020-11-17 10:00:00 26.8 8 Este 15 Nordeste 0 -- -- 42
2020-11-17 09:00:00 24.1 12 Nordeste 16 Nordeste 0 -- -- 37
2020-11-17 08:00:00 21.5 13 Nordeste 23 Nordeste 0 -- -- 39
2020-11-17 07:00:00 21.3 14 Nordeste 17 Nordeste 0 -- -- 44
2020-11-17 06:00:00 21.8 12 Nordeste 18 Nordeste 0 -- -- 43
2020-11-17 05:00:00 22.8 11 Norte 21 Nordeste 0 -- -- 44
2020-11-17 04:00:00 21.3 11 Nordeste 16 Nordeste 0 -- -- 46
2020-11-17 03:00:00 21.9 7 Nordeste 9 Nordeste 0 -- -- 41
2020-11-17 02:00:00 22.6 6 Nordeste 8 Nordeste 0 -- -- 38
2020-11-17 01:00:00 23.1 4 Norte 19 Este 0 -- -- 35
2020-11-17 00:00:00 22.6 10 Norte 21 Nordeste 0 -- -- 30
2020-11-16 23:00:00 23.1 14 Nordeste 18 Nordeste 0 -- -- 33
2020-11-16 22:00:00 23.6 14 Nordeste 17 Norte 0 -- -- 30
2020-11-16 21:00:00 24.1 6 Nordeste 14 Norte 0 -- -- 27
2020-11-16 20:00:00 24.8 12 Norte 15 Norte 0 -- -- 27
2020-11-16 19:00:00 26.4 7 Norte 10 Norte 0 -- -- 27
2020-11-16 18:00:00 25.7 3 Sudoeste 5 Sudoeste 0 -- -- 39
2020-11-16 17:00:00 27.1 3 Sudoeste 10 Sudoeste 0 -- -- 39
2020-11-16 16:00:00 29 8 Sudoeste 10 Sudoeste 0 -- -- 25
2020-11-16 15:00:00 28.1 4 Sur 8 Sudoeste 0 -- -- 31
2020-11-16 14:00:00 29 2 Sur 9 Este 0 -- -- 29
2020-11-16 13:00:00 -- 0 Calma 11 Sudeste 0 -- -- --
2020-11-16 12:00:00 28.2 2 Este 16 Este 0 -- -- 33
2020-11-16 11:00:00 25.3 9 Este 28 Este 0 -- -- 40
2020-11-16 10:00:00 25.6 20 Este 32 Este 0 -- -- 44
2020-11-16 09:00:00 25.1 3 Noroeste 23 Nordeste 0 -- -- 40
2020-11-16 08:00:00 20.7 17 Nordeste 22 Norte 0 -- -- 42
2020-11-16 07:00:00 21.1 10 Nordeste 14 Nordeste 0 -- -- 45
2020-11-16 06:00:00 22.4 8 Nordeste 15 Nordeste 0 -- -- 40
2020-11-16 05:00:00 22.2 11 Nordeste 15 Nordeste 0 -- -- 43
2020-11-16 04:00:00 22.3 6 Norte 22 Norte 0 -- -- 49
2020-11-16 03:00:00 21.8 13 Nordeste 16 Norte 0 -- -- 55
2020-11-16 02:00:00 21.5 12 Nordeste 15 Nordeste 0 -- -- 67
2020-11-16 01:00:00 22.1 12 Nordeste 17 Nordeste 0 -- -- 67
2020-11-16 00:00:00 22.1 10 Nordeste 16 Nordeste 0 -- -- 67
2020-11-15 23:00:00 24.1 13 Nordeste 30 Este 0 -- -- 57
2020-11-15 22:00:00 22.9 13 Este 24 Este 0 -- -- 75
2020-11-15 21:00:00 23 11 Norte 17 Norte 0 -- -- 63
2020-11-15 20:00:00 22.9 11 Nordeste 13 Norte 0 -- -- 79
2020-11-15 19:00:00 22.4 7 Oeste 9 Oeste 0 -- -- 91
2020-11-15 18:00:00 22.7 2 Sudoeste 6 Sur 0 -- -- 89
2020-11-15 17:00:00 23.2 4 Sur 9 Sudoeste 0 -- -- 87
2020-11-15 16:00:00 23.8 4 Sur 9 Sudoeste 0 -- -- 84
2020-11-15 15:00:00 24.4 6 Sudoeste 12 Sudoeste 0 -- -- 81
2020-11-15 14:00:00 24.9 10 Sur 17 Sur 0 -- -- 80
2020-11-15 13:00:00 25.3 8 Sur 11 Sur 0 -- -- 78
2020-11-15 12:00:00 24.5 0 Calma 7 Sur 0 -- -- 80
2020-11-15 11:00:00 23.8 4 Sur 5 Sudoeste 0 -- -- 80
2020-11-15 10:00:00 22.3 0 Calma 6 Nordeste 0 -- -- 72
2020-11-15 09:00:00 21 3 Norte 8 Este 0 -- -- 72
2020-11-15 08:00:00 20.6 4 Norte 9 Norte 0 -- -- 74
2020-11-15 07:00:00 19.7 5 Nordeste 8 Nordeste 0 -- -- 69
2020-11-15 06:00:00 21.2 0 Calma 8 Sudoeste 0 -- -- 81
2020-11-15 05:00:00 21.9 5 Sudoeste 8 Sudoeste 0 -- -- 76
2020-11-15 04:00:00 20.9 3 Sudoeste 12 Nordeste 0 -- -- 59
2020-11-15 03:00:00 21.5 0 Calma 9 Nordeste 0 -- -- 57
2020-11-15 02:00:00 21.3 3 Norte 9 Nordeste 0 -- -- 62
2020-11-15 01:00:00 22 0 Calma 8 Sudoeste 0 -- -- 71
2020-11-15 00:00:00 21.9 0 Calma 5 Norte 0 -- -- 65
2020-11-14 23:00:00 22.4 4 Sudoeste 8 Norte 0 -- -- 74
2020-11-14 22:00:00 22.6 3 Nordeste 6 Nordeste 0 -- -- 66
2020-11-14 21:00:00 23.2 3 Nordeste 16 Sudoeste 0 -- -- 66
2020-11-14 20:00:00 23 5 Sudoeste 9 Sudoeste 0 -- -- 74
2020-11-14 19:00:00 22.9 2 Oeste 9 Sudoeste 0 -- -- 72
2020-11-14 18:00:00 23.2 3 Sur 16 Sudoeste 0 -- -- 72
2020-11-14 17:00:00 23.7 6 Sur 15 Sur 0 -- -- 72
2020-11-14 16:00:00 24.5 4 Sudeste 15 Sudoeste 0 -- -- 62
2020-11-14 15:00:00 27.8 5 Sudoeste 11 Sudoeste 0 -- -- 42
2020-11-14 14:00:00 27.3 5 Sur 9 Sudoeste 0 -- -- 44
2020-11-14 13:00:00 27 2 Sur 8 Sudoeste 0 -- -- 44
2020-11-14 12:00:00 27.8 2 Sudoeste 9 Sudoeste 0 -- -- 43
2020-11-14 11:00:00 27.2 3 Sudoeste 12 Sudoeste 0 -- -- 44
2020-11-14 10:00:00 25.8 5 Sudoeste 9 Oeste 0 -- -- 49
2020-11-14 09:00:00 24.7 2 Norte 9 Nordeste 0 -- -- 51
2020-11-14 08:00:00 24.2 5 Norte 13 Nordeste 0 -- -- 53
2020-11-14 07:00:00 24.5 5 Noroeste 11 Sudoeste 0 -- -- 52
2020-11-14 06:00:00 24.2 8 Oeste 14 Norte 0 -- -- 55
2020-11-14 05:00:00 24.2 5 Noroeste 14 Nordeste 0 -- -- 56
2020-11-14 04:00:00 24 9 Nordeste 16 Este 0 -- -- 57
2020-11-14 03:00:00 24.4 13 Nordeste 20 Norte 0 -- -- 56
2020-11-14 02:00:00 24 6 Nordeste 17 Nordeste 0 -- -- 58
2020-11-14 01:00:00 24.5 10 Nordeste 19 Norte 0 -- -- 57
2020-11-14 00:00:00 24.7 8 Norte 24 Nordeste 0 -- -- 56
2020-11-13 23:00:00 25.6 11 Este 40 Nordeste 0 -- -- 53
2020-11-13 22:00:00 24.5 14 Nordeste 22 Nordeste 0 -- -- 53
2020-11-13 21:00:00 25.5 10 Nordeste 23 Nordeste 0 -- -- 51
2020-11-13 20:00:00 25 13 Nordeste 32 Nordeste 0 -- -- 52
2020-11-13 19:00:00 25 15 Nordeste 31 Nordeste 0 -- -- 50
2020-11-13 18:00:00 23 7 Nordeste 19 Este 0 -- -- 65
2020-11-13 17:00:00 22.9 14 Este 31 Nordeste 0 -- -- 64
2020-11-13 16:00:00 22.2 15 Este 30 Nordeste 0 -- -- 73
2020-11-13 15:00:00 21.8 17 Este 28 Nordeste 0 -- -- 78
2020-11-13 14:00:00 24.2 12 Este 30 Este 0 -- -- 50
2020-11-13 13:00:00 24.3 14 Este 26 Este 0 -- -- 40
2020-11-13 12:00:00 23.5 14 Este 27 Nordeste 0 -- -- 65
2020-11-13 11:00:00 23.3 16 Nordeste 25 Nordeste 0 -- -- 62
2020-11-13 10:00:00 22 9 Nordeste 17 Nordeste 0 -- -- 74
2020-11-13 09:00:00 21.4 7 Nordeste 13 Este 0 -- -- 81
2020-11-13 08:00:00 20.6 4 Nordeste 9 Este 0 -- -- 84
2020-11-13 07:00:00 20.4 4 Norte 9 Noroeste 0 -- -- 83
2020-11-13 06:00:00 20.5 5 Noroeste 9 Oeste 0 -- -- 83
2020-11-13 05:00:00 20.2 3 Norte 11 Noroeste 0 -- -- 81
2020-11-13 04:00:00 20.4 6 Noroeste 10 Noroeste 0 -- -- 80
2020-11-13 03:00:00 20.3 3 Noroeste 10 Norte 0 -- -- 81
2020-11-13 02:00:00 20.5 3 Norte 14 Norte 0 -- -- 82
2020-11-13 01:00:00 20.4 2 Sudeste 15 Norte 0 -- -- 83
2020-11-13 00:00:00 20.6 6 Norte 9 Norte 0 -- -- 81
2020-11-12 23:00:00 21 6 Norte 14 Nordeste 0 -- -- 80
2020-11-12 22:00:00 21.5 3 Norte 13 Norte 0 -- -- 79
2020-11-12 21:00:00 22 8 Norte 15 Norte 0 -- -- 77
2020-11-12 20:00:00 21.6 2 Sudoeste 15 Nordeste 0 -- -- 81
2020-11-12 19:00:00 21.6 6 Este 17 Este 0 -- -- 84
2020-11-12 18:00:00 21.9 6 Sudeste 20 Nordeste 0 -- -- 83
2020-11-12 17:00:00 21.5 13 Este 24 Sudeste 0 -- -- 84
2020-11-12 16:00:00 22 11 Este 23 Este 0 -- -- 82
2020-11-12 15:00:00 21.8 12 Este 24 Este 0 -- -- 81
2020-11-12 14:00:00 22.8 9 Este 18 Sudeste 0 -- -- 78
2020-11-12 13:00:00 23.8 8 Sudeste 16 Sudeste 0 -- -- 74
2020-11-12 12:00:00 22.8 6 Sudeste 10 Sudeste 0 -- -- 76
2020-11-12 11:00:00 22.4 3 Este 10 Nordeste 0 -- -- 75
2020-11-12 10:00:00 21.1 7 Norte 14 Norte 0 -- -- 79
2020-11-12 09:00:00 20.3 7 Nordeste 13 Noroeste 0 -- -- 81
2020-11-12 08:00:00 19.4 4 Norte 10 Nordeste 0 -- -- 83
2020-11-12 07:00:00 19.3 8 Nordeste 11 Nordeste 0 -- -- 84
2020-11-12 06:00:00 19.5 6 Norte 10 Oeste 0 -- -- 83
2020-11-12 05:00:00 19.6 4 Nordeste 15 Noroeste 0 -- -- 83
2020-11-12 04:00:00 19.7 9 Noroeste 18 Nordeste 0 -- -- 81
2020-11-12 03:00:00 20 4 Norte 11 Nordeste 0 -- -- 81
2020-11-12 02:00:00 20 6 Nordeste 13 Nordeste 0 -- -- 80
2020-11-12 01:00:00 19.8 8 Norte 14 Noroeste 0 -- -- 81
2020-11-12 00:00:00 20.5 6 Noroeste 13 Norte 0 -- -- 80
2020-11-11 23:00:00 20.9 6 Norte 12 Norte 0 -- -- 78
2020-11-11 22:00:00 21.1 6 Norte 10 Norte 0 -- -- 76
2020-11-11 21:00:00 21.3 6 Norte 19 Nordeste 0 -- -- 75
2020-11-11 20:00:00 21.6 10 Nordeste 15 Nordeste 0 -- -- 74
2020-11-11 19:00:00 21.4 2 Sudeste 9 Sur 0 -- -- 79
2020-11-11 18:00:00 21.4 4 Sudeste 15 Este 0 -- -- 78
2020-11-11 17:00:00 21.9 5 Este 23 Este 0 -- -- 76
2020-11-11 16:00:00 21.7 9 Sudeste 23 Nordeste 0 -- -- 79
2020-11-11 15:00:00 21.9 11 Este 26 Sudeste 0 -- -- 77
2020-11-11 14:00:00 22.6 8 Sudeste 26 Este 0 -- -- 73
2020-11-11 13:00:00 22.3 15 Este 30 Nordeste 0 -- -- 75
2020-11-11 12:00:00 22.1 14 Este 26 Este 0 -- -- 75
2020-11-11 11:00:00 22 8 Este 14 Sudeste 0 -- -- 73
2020-11-11 10:00:00 22 3 Sudeste 8 Nordeste 0 -- -- 69
2020-11-11 09:00:00 19.6 4 Norte 14 Norte 0 -- -- 80
2020-11-11 08:00:00 17.4 9 Nordeste 13 Nordeste 0 -- -- 86
2020-11-11 07:00:00 16.8 9 Nordeste 15 Nordeste 0 -- -- 87
2020-11-11 06:00:00 16.8 9 Nordeste 13 Nordeste 0 -- -- 87
2020-11-11 05:00:00 16.8 8 Nordeste 13 Norte 0 -- -- 86
2020-11-11 04:00:00 17.3 9 Nordeste 12 Nordeste 0 -- -- 86
2020-11-11 03:00:00 17.7 9 Nordeste 15 Nordeste 0 -- -- 84
2020-11-11 02:00:00 18.7 11 Nordeste 18 Norte 0 -- -- 80
2020-11-11 01:00:00 19 11 Norte 18 Norte 0 -- -- 80
2020-11-11 00:00:00 19.3 10 Norte 18 Norte 0 -- -- 78
2020-11-10 23:00:00 19.6 10 Norte 18 Norte 0 -- -- 78
2020-11-10 22:00:00 19.8 10 Norte 18 Norte 0 -- -- 77
2020-11-10 21:00:00 20 11 Norte 18 Norte 0 -- -- 75
2020-11-10 20:00:00 20.3 12 Norte 22 Norte 0 -- -- 74
2020-11-10 19:00:00 20.6 13 Nordeste 23 Norte 0 -- -- 73
2020-11-10 18:00:00 21.3 16 Nordeste 26 Norte 0 -- -- 69
2020-11-10 17:00:00 22 15 Nordeste 30 Nordeste 0 -- -- 63
2020-11-10 16:00:00 22.6 17 Nordeste 26 Este 0 -- -- 55
2020-11-10 15:00:00 22.9 19 Nordeste 31 Nordeste 0 -- -- 57
2020-11-10 14:00:00 23 17 Nordeste 30 Nordeste 0 -- -- 59
2020-11-10 13:00:00 22.7 15 Este 35 Nordeste 0 -- -- 63
2020-11-10 12:00:00 22 22 Nordeste 36 Nordeste 0 -- -- 65
2020-11-10 11:00:00 22.5 20 Nordeste 36 Nordeste 0 -- -- 58
2020-11-10 10:00:00 22.1 19 Nordeste 32 Nordeste 0 -- -- 63
2020-11-10 09:00:00 21.2 19 Nordeste 34 Nordeste 0 -- -- 66
2020-11-10 08:00:00 20.1 15 Nordeste 27 Nordeste 0 -- -- 71
2020-11-10 07:00:00 19.9 16 Nordeste 25 Nordeste 0 -- -- 71
2020-11-10 06:00:00 20 15 Nordeste 24 Nordeste 0 -- -- 74
2020-11-10 05:00:00 20 15 Nordeste 26 Nordeste 0 -- -- 73
2020-11-10 04:00:00 20 16 Nordeste 26 Nordeste 0 -- -- 75
2020-11-10 03:00:00 20 16 Nordeste 27 Nordeste 0 -- -- 75
2020-11-10 02:00:00 20.3 17 Nordeste 27 Nordeste 0 -- -- 76
2020-11-10 01:00:00 20.4 18 Nordeste 29 Nordeste 0 -- -- 75
2020-11-10 00:00:00 20.6 15 Nordeste 24 Nordeste 0 -- -- 76
2020-11-09 23:00:00 20.5 14 Nordeste 27 Nordeste 0 -- -- 76
2020-11-09 22:00:00 20.7 13 Nordeste 26 Nordeste 0 -- -- 76
2020-11-09 21:00:00 20.8 14 Nordeste 26 Nordeste 0 -- -- 75
2020-11-09 20:00:00 20.9 16 Nordeste 28 Nordeste 0 -- -- 73
2020-11-09 19:00:00 21.1 14 Nordeste 25 Nordeste 0 -- -- 71
2020-11-09 18:00:00 21.6 15 Nordeste 28 Nordeste 0 -- -- 69
2020-11-09 17:00:00 22 21 Nordeste 33 Nordeste 0 -- -- 67
2020-11-09 16:00:00 22.1 18 Este 38 Este 0 -- -- 71
2020-11-09 15:00:00 22.4 22 Este 37 Este 0 -- -- 68
2020-11-09 14:00:00 23 21 Este 33 Este 0 -- -- 61
2020-11-09 13:00:00 23.7 18 Nordeste 37 Nordeste 0 -- -- 57
2020-11-09 12:00:00 23.1 15 Este 28 Este 0 -- -- 63
2020-11-09 11:00:00 22.8 15 Nordeste 25 Nordeste 0 -- -- 63
2020-11-09 10:00:00 22.3 14 Nordeste 29 Nordeste 0 -- -- 68
2020-11-09 09:00:00 20 10 Nordeste 15 Nordeste 0 -- -- 78
2020-11-09 08:00:00 15.8 11 Nordeste 18 Nordeste 0 -- -- 86
2020-11-09 07:00:00 15.9 11 Nordeste 16 Nordeste 0 -- -- 85
2020-11-09 06:00:00 15.6 8 Nordeste 13 Nordeste 0 -- -- 84
2020-11-09 05:00:00 15.8 9 Nordeste 13 Nordeste 0 -- -- 82
2020-11-09 04:00:00 15.8 10 Nordeste 14 Nordeste 0 -- -- 83
2020-11-09 03:00:00 16.4 10 Nordeste 12 Nordeste 0 -- -- 82
2020-11-09 02:00:00 16.4 9 Nordeste 12 Nordeste 0 -- -- 83
2020-11-09 01:00:00 17.4 9 Nordeste 13 Nordeste 0 -- -- 83
2020-11-09 00:00:00 18.5 6 Nordeste 13 Noroeste 0 -- -- 79
2020-11-08 23:00:00 18.8 7 Nordeste 14 Norte 0 -- -- 77
2020-11-08 22:00:00 19.5 8 Norte 16 Norte 0 -- -- 75
2020-11-08 21:00:00 20.1 12 Nordeste 19 Norte 0 -- -- 73
2020-11-08 20:00:00 20.5 9 Norte 14 Norte 0 -- -- 71
2020-11-08 19:00:00 20.9 10 Nordeste 15 Nordeste 0 -- -- 69
2020-11-08 18:00:00 21.2 10 Nordeste 20 Este 0 -- -- 70
2020-11-08 17:00:00 21.2 14 Este 30 Este 0 -- -- 73
2020-11-08 16:00:00 21.3 17 Este 33 Este 0 -- -- 74
2020-11-08 15:00:00 21.2 17 Este 35 Este 0 -- -- 78
2020-11-08 14:00:00 21.5 20 Este 47 Este 0 -- -- 75
2020-11-08 13:00:00 21.7 24 Este 36 Este 0 -- -- 67
2020-11-08 12:00:00 21.8 20 Este 36 Este 0 -- -- 67
2020-11-08 11:00:00 22.4 14 Este 27 Este 0 -- -- 71
2020-11-08 10:00:00 22 8 Sudeste 11 Sudeste 0 -- -- 71
2020-11-08 09:00:00 19.2 8 Nordeste 13 Nordeste 0 -- -- 75
2020-11-08 08:00:00 16.4 8 Nordeste 12 Nordeste 0 -- -- 77
2020-11-08 07:00:00 15.9 8 Nordeste 13 Nordeste 0 -- -- 81
2020-11-08 06:00:00 16.3 9 Nordeste 13 Nordeste 0 -- -- 82
2020-11-08 05:00:00 16.2 8 Nordeste 12 Nordeste 0 -- -- 81
2020-11-08 04:00:00 16.5 8 Nordeste 16 Nordeste 0 -- -- 79
2020-11-08 03:00:00 16.9 10 Nordeste 13 Nordeste 0 -- -- 77
2020-11-08 02:00:00 17.4 9 Nordeste 12 Nordeste 0 -- -- 77
2020-11-08 01:00:00 18.2 8 Nordeste 11 Nordeste 0 -- -- 81
2020-11-08 00:00:00 18.5 8 Nordeste 13 Nordeste 0 -- -- 83
2020-11-07 23:00:00 19.3 8 Nordeste 14 Norte 0 -- -- 82
2020-11-07 22:00:00 20.2 10 Norte 16 Norte 0 -- -- 77
2020-11-07 21:00:00 20.9 9 Norte 14 Noroeste 0 -- -- 69
2020-11-07 20:00:00 21.2 5 Norte 9 Norte 0 -- -- 68
2020-11-07 19:00:00 20.9 5 Nordeste 22 Este 0 -- -- 76
2020-11-07 18:00:00 21 14 Este 26 Este 0 -- -- 79
2020-11-07 17:00:00 21.6 14 Este 26 Este 0 -- -- 78
2020-11-07 16:00:00 22 15 Este 26 Este 0 -- -- 77
2020-11-07 15:00:00 22.4 15 Este 24 Este 0 -- -- 73
2020-11-07 14:00:00 22.2 15 Este 27 Este 0 -- -- 72
2020-11-07 13:00:00 21.9 20 Este 30 Nordeste 0 -- -- 73
2020-11-07 12:00:00 22.3 16 Este 27 Este 0 -- -- 73
2020-11-07 11:00:00 22.5 13 Este 23 Este 0 -- -- 71
2020-11-07 10:00:00 23.1 5 Sudeste 10 Sudeste 0 -- -- 64
2020-11-07 09:00:00 19.8 8 Nordeste 14 Norte 0 -- -- 71
2020-11-07 08:00:00 16.5 12 Nordeste 15 Norte 0 -- -- 78
2020-11-07 07:00:00 15.9 12 Norte 15 Nordeste 0 -- -- 80
2020-11-07 06:00:00 16.8 11 Nordeste 13 Nordeste 0 -- -- 78
2020-11-07 05:00:00 17.5 9 Nordeste 14 Nordeste 0 -- -- 77
2020-11-07 04:00:00 18.2 10 Nordeste 15 Nordeste 0 -- -- 77
2020-11-07 03:00:00 18 10 Nordeste 12 Nordeste 0 -- -- 77
2020-11-07 02:00:00 18.6 8 Norte 12 Norte 0 -- -- 76
2020-11-07 01:00:00 18.6 9 Nordeste 11 Nordeste 0 -- -- 75
2020-11-07 00:00:00 20.5 5 Norte 8 Norte 0 -- -- 72
2020-11-06 23:00:00 21.2 0 Calma 4 Nordeste 0 -- -- 71
2020-11-06 22:00:00 21.3 0 Calma 6 Nordeste 0 -- -- 70
2020-11-06 21:00:00 21.5 5 Nordeste 11 Norte 0 -- -- 71
2020-11-06 20:00:00 21.5 6 Norte 18 Norte 0 -- -- 72
2020-11-06 19:00:00 21.7 13 Norte 27 Norte 0 -- -- 70
2020-11-06 18:00:00 22.3 13 Norte 30 Norte 0 -- -- 64
2020-11-06 17:00:00 23.3 14 Norte 25 Norte 0 -- -- 63
2020-11-06 16:00:00 22.9 19 Sudoeste 39 Sudoeste 0 -- -- 70
2020-11-06 15:00:00 22.6 29 Sudoeste 44 Sudoeste 0 -- -- 73
2020-11-06 14:00:00 23 31 Sudoeste 46 Sudoeste 0 -- -- 72
2020-11-06 13:00:00 23.5 32 Sudoeste 46 Sudoeste 0 -- -- 68
2020-11-06 12:00:00 23.6 33 Sudoeste 52 Sudoeste 0 -- -- 71
2020-11-06 11:00:00 23 33 Sudoeste 48 Sudoeste 0 -- -- 72
2020-11-06 10:00:00 22.6 33 Sudoeste 45 Sudoeste 0 -- -- 72
2020-11-06 09:00:00 22.2 31 Sudoeste 44 Sudoeste 0 -- -- 71
2020-11-06 08:00:00 21.7 28 Sudoeste 47 Sudoeste 0 -- -- 72
2020-11-06 07:00:00 21 28 Sudoeste 42 Sudoeste 0 -- -- 71
2020-11-06 06:00:00 21.1 30 Sudoeste 42 Sudoeste 0 -- -- 73
2020-11-06 05:00:00 21 31 Sudoeste 43 Sudoeste 0 -- -- 80
2020-11-06 04:00:00 21.1 27 Sudoeste 42 Sudoeste 0 -- -- 81
2020-11-06 03:00:00 20.7 24 Sudoeste 32 Sudoeste 0 -- -- 85
2020-11-06 02:00:00 20.5 22 Sudoeste 31 Sudoeste 0 -- -- 83
2020-11-06 01:00:00 20 22 Sudoeste 30 Sudoeste 0 -- -- 86
2020-11-06 00:00:00 20.6 17 Sudoeste 24 Sudoeste 0 -- -- 78
2020-11-05 23:00:00 20.8 13 Sudoeste 17 Sudoeste 0 -- -- 76
2020-11-05 22:00:00 20.9 11 Sudoeste 16 Sudoeste 0 -- -- 75
2020-11-05 21:00:00 20.8 10 Sudoeste 16 Sudoeste 0 -- -- 77
2020-11-05 20:00:00 20.6 10 Sudoeste 19 Sudoeste 0 -- -- 75
2020-11-05 19:00:00 20.7 13 Sudoeste 22 Sur 0 -- -- 76
2020-11-05 18:00:00 21.3 15 Sudoeste 24 Sur 0 -- -- 76
2020-11-05 17:00:00 21.9 15 Sudoeste 21 Sudoeste 0 -- -- 72
2020-11-05 16:00:00 22.9 14 Sudoeste 24 Sur 0 -- -- 61
2020-11-05 15:00:00 22.9 19 Sudoeste 28 Sudoeste 0 -- -- 64
2020-11-05 14:00:00 22.9 19 Sur 25 Sur 0 -- -- 63
2020-11-05 13:00:00 23.1 17 Sudoeste 22 Sudoeste 0 -- -- 59
2020-11-05 12:00:00 23.2 13 Sur 18 Sur 0 -- -- 58
2020-11-05 11:00:00 23.2 10 Sur 15 Sur 0 -- -- 60
2020-11-05 10:00:00 21.5 6 Sur 9 Sur 0 -- -- 68
2020-11-05 09:00:00 19.1 6 Norte 13 Norte 0 -- -- 71
2020-11-05 08:00:00 15.7 8 Norte 13 Norte 0 -- -- 80
2020-11-05 07:00:00 14.8 10 Nordeste 12 Nordeste 0 -- -- 81
2020-11-05 06:00:00 16.1 7 Norte 9 Norte 0 -- -- 79
2020-11-05 05:00:00 16.4 6 Norte 9 Norte 0 -- -- 79
2020-11-05 04:00:00 16.9 5 Nordeste 9 Norte 0 -- -- 79
2020-11-05 03:00:00 17.8 8 Nordeste 13 Norte 0 -- -- 76
2020-11-05 02:00:00 19.1 7 Norte 17 Noroeste 0 -- -- 73
2020-11-05 01:00:00 18.7 7 Norte 13 Norte 0 -- -- 76
2020-11-05 00:00:00 18.3 8 Nordeste 16 Nordeste 0 -- -- 76
2020-11-04 23:00:00 18.8 8 Nordeste 16 Norte 0 -- -- 75
2020-11-04 22:00:00 19.7 10 Norte 19 Norte 0 -- -- 71
2020-11-04 21:00:00 20 8 Norte 18 Norte 0 -- -- 70
2020-11-04 20:00:00 20.1 11 Norte 26 Norte 0 -- -- 71
2020-11-04 19:00:00 20.2 12 Norte 25 Norte 0 -- -- 74
2020-11-04 18:00:00 21 12 Nordeste 18 Nordeste 0 -- -- 74
2020-11-04 17:00:00 21 15 Nordeste 31 Norte 0 -- -- 73
2020-11-04 16:00:00 21.2 14 Nordeste 24 Nordeste 0 -- -- 75
2020-11-04 15:00:00 21.6 17 Nordeste 27 Nordeste 0 -- -- 71
2020-11-04 14:00:00 21.9 18 Nordeste 30 Nordeste 0 -- -- 69
2020-11-04 13:00:00 22.5 18 Nordeste 32 Norte 0 -- -- 65
2020-11-04 12:00:00 22.5 19 Nordeste 32 Norte 0 -- -- 65
2020-11-04 11:00:00 22 19 Nordeste 33 Norte 0 -- -- 69
2020-11-04 10:00:00 21.4 20 Nordeste 29 Nordeste 0 -- -- 71
2020-11-04 09:00:00 21 19 Nordeste 30 Nordeste 0 -- -- 73
2020-11-04 08:00:00 20.7 16 Nordeste 24 Nordeste 0 -- -- 74
2020-11-04 07:00:00 20.7 17 Nordeste 28 Nordeste 0 -- -- 75
2020-11-04 06:00:00 20.7 14 Nordeste 28 Nordeste 0 -- -- 76
2020-11-04 05:00:00 20.7 16 Nordeste 25 Nordeste 0 -- -- 78
2020-11-04 04:00:00 21 14 Nordeste 31 Nordeste 0 -- -- 78
2020-11-04 03:00:00 20.9 15 Nordeste 32 Nordeste 0 -- -- 78
2020-11-04 02:00:00 21 20 Nordeste 42 Nordeste 0 -- -- 75
2020-11-04 01:00:00 21 17 Nordeste 31 Norte 0 -- -- 75
2020-11-04 00:00:00 21 17 Nordeste 38 Nordeste 0 -- -- 75
2020-11-03 23:00:00 21 20 Nordeste 36 Norte 0 -- -- 75
2020-11-03 22:00:00 20.9 21 Nordeste 39 Nordeste 0 -- -- 76
2020-11-03 21:00:00 21.1 19 Nordeste 34 Nordeste 0 -- -- 77
2020-11-03 20:00:00 21.3 17 Nordeste 36 Nordeste 0 -- -- 76
2020-11-03 19:00:00 21.6 21 Nordeste 32 Norte 0 -- -- 74
2020-11-03 18:00:00 22.5 19 Norte 32 Nordeste 0 -- -- 69
2020-11-03 17:00:00 24.3 16 Norte 27 Nordeste 0 -- -- 61
2020-11-03 16:00:00 25 15 Nordeste 24 Este 0 -- -- 58
2020-11-03 15:00:00 25.1 12 Norte 26 Nordeste 0 -- -- 57
2020-11-03 14:00:00 23.4 15 Este 32 Este 0 -- -- 71
2020-11-03 13:00:00 24.1 14 Este 28 Este 0 -- -- 64
2020-11-03 12:00:00 23.7 14 Nordeste 29 Nordeste 0 -- -- 66
2020-11-03 11:00:00 23.4 18 Nordeste 31 Nordeste 0 -- -- 66
2020-11-03 10:00:00 22.9 19 Nordeste 27 Norte 0 -- -- 68
2020-11-03 09:00:00 22 16 Nordeste 26 Norte 0 -- -- 72
2020-11-03 08:00:00 20.8 11 Nordeste 19 Nordeste 0 -- -- 78
2020-11-03 07:00:00 20.2 11 Norte 21 Norte 0 -- -- 79
2020-11-03 06:00:00 18.3 8 Nordeste 16 Norte 0 -- -- 84
2020-11-03 05:00:00 18.9 9 Nordeste 13 Nordeste 0 -- -- 83
2020-11-03 04:00:00 18.7 9 Nordeste 14 Nordeste 0 -- -- 81
2020-11-03 03:00:00 19.1 7 Nordeste 12 Nordeste 0 -- -- 79
2020-11-03 02:00:00 19.3 9 Nordeste 14 Nordeste 0 -- -- 79
2020-11-03 01:00:00 20 6 Norte 14 Norte 0 -- -- 77
2020-11-03 00:00:00 20.3 7 Norte 17 Nordeste 0 -- -- 76
2020-11-02 23:00:00 20.6 5 Nordeste 12 Nordeste 0 -- -- 81
2020-11-02 22:00:00 21 9 Norte 19 Nordeste 0 -- -- 79
2020-11-02 21:00:00 21.3 12 Nordeste 25 Norte 0 -- -- 79
2020-11-02 20:00:00 21.6 15 Nordeste 26 Nordeste 0 -- -- 77
2020-11-02 19:00:00 22.1 14 Nordeste 23 Nordeste 0 -- -- 73
2020-11-02 18:00:00 22.7 15 Nordeste 27 Nordeste 0 -- -- 71
2020-11-02 17:00:00 23.4 14 Nordeste 25 Nordeste 0 -- -- 69
2020-11-02 16:00:00 23.8 17 Este 33 Este 0 -- -- 69
2020-11-02 15:00:00 24.7 18 Nordeste 30 Norte 0 -- -- 62
2020-11-02 14:00:00 24.8 17 Nordeste 28 Nordeste 0 -- -- 63
2020-11-02 13:00:00 24.5 19 Nordeste 32 Nordeste 0 -- -- 61
2020-11-02 12:00:00 24.4 13 Nordeste 27 Norte 0 -- -- 63
2020-11-02 11:00:00 23 17 Nordeste 28 Norte 0 -- -- 69
2020-11-02 10:00:00 22.3 18 Nordeste 29 Nordeste 0 -- -- 71
2020-11-02 09:00:00 21.6 15 Nordeste 23 Nordeste 0 -- -- 74
2020-11-02 08:00:00 20.3 4 Nordeste 22 Norte 0 -- -- 80
2020-11-02 07:00:00 20 10 Norte 22 Norte 0 -- -- 82
2020-11-02 06:00:00 20.2 17 Norte 33 Norte 0 -- -- 81
2020-11-02 05:00:00 19.9 14 Norte 24 Norte 0 -- -- 82
2020-11-02 04:00:00 20.1 17 Norte 32 Norte 0 -- -- 81
2020-11-02 03:00:00 20.4 19 Norte 30 Norte 0 -- -- 81
2020-11-02 02:00:00 20.5 14 Norte 29 Norte 0 -- -- 78
2020-11-02 01:00:00 20.6 17 Norte 31 Norte 0 -- -- 80
2020-11-02 00:00:00 20.8 17 Norte 33 Norte 0 -- -- 79
2020-11-01 23:00:00 21 17 Norte 36 Norte 0 -- -- 78
2020-11-01 22:00:00 21.3 22 Norte 33 Norte 0 -- -- 75
2020-11-01 21:00:00 21.7 20 Norte 39 Norte 0 -- -- 68
2020-11-01 20:00:00 21.8 19 Norte 35 Norte 0 -- -- 71
2020-11-01 19:00:00 22.5 17 Norte 30 Norte 0 -- -- 65
2020-11-01 18:00:00 23.2 16 Norte 28 Norte 0 -- -- 62
2020-11-01 17:00:00 25.1 17 Norte 35 Norte 0 -- -- 52
2020-11-01 16:00:00 26.6 23 Nordeste 35 Nordeste 0 -- -- 35
2020-11-01 15:00:00 27.3 21 Nordeste 35 Nordeste 0 -- -- 31
2020-11-01 14:00:00 27.1 21 Nordeste 30 Nordeste 0 -- -- 33
2020-11-01 13:00:00 27 19 Este 34 Norte 0 -- -- 36
2020-11-01 12:00:00 28.1 23 Nordeste 34 Nordeste 0 -- -- 29
2020-11-01 11:00:00 27.7 23 Norte 41 Nordeste 0 -- -- 35
2020-11-01 10:00:00 27.8 19 Norte 31 Norte 0 -- -- 33
2020-11-01 09:00:00 25.4 18 Norte 32 Norte 0 -- -- 43
2020-11-01 08:00:00 23.6 18 Norte 38 Nordeste 0 -- -- 49
2020-11-01 07:00:00 22.8 19 Norte 33 Norte 0 -- -- 54
2020-11-01 06:00:00 22.4 18 Norte 32 Norte 0 -- -- 60
2020-11-01 05:00:00 22.8 17 Norte 28 Nordeste 0 -- -- 52
2020-11-01 04:00:00 22.5 16 Nordeste 31 Nordeste 0 -- -- 56
2020-11-01 03:00:00 22.7 17 Norte 27 Norte 0 -- -- 57
2020-11-01 02:00:00 23 16 Norte 31 Norte 0 -- -- 53
2020-11-01 01:00:00 23.6 20 Norte 32 Norte 0 -- -- 51
2020-11-01 00:00:00 25.4 17 Norte 32 Norte 0 -- -- 31
2020-10-31 23:00:00 25.5 19 Norte 30 Norte 0 -- -- 32
2020-10-31 22:00:00 26.1 16 Norte 28 Norte 0 -- -- 26
2020-10-31 21:00:00 25.5 14 Norte 31 Norte 0 -- -- 29
2020-10-31 20:00:00 26.1 19 Norte 30 Norte 0 -- -- 28
2020-10-31 19:00:00 26.2 14 Norte 26 Norte 0 -- -- 29
2020-10-31 18:00:00 27.6 19 Norte 29 Norte 0 -- -- 29
2020-10-31 17:00:00 29.5 19 Nordeste 31 Nordeste 0 -- -- 20
2020-10-31 16:00:00 29.8 21 Nordeste 31 Nordeste 0 -- -- 21
2020-10-31 15:00:00 29.1 19 Nordeste 43 Nordeste 0 -- -- 22
2020-10-31 14:00:00 28.2 14 Nordeste 36 Nordeste 0 -- -- 25
2020-10-31 13:00:00 28 14 Nordeste 35 Este 0 -- -- 26
2020-10-31 12:00:00 27.2 14 Nordeste 37 Norte 0 -- -- 32
2020-10-31 11:00:00 27.5 14 Nordeste 41 Nordeste 0 -- -- 32
2020-10-31 10:00:00 27.9 27 Nordeste 50 Nordeste 0 -- -- 28
2020-10-31 09:00:00 27.5 22 Nordeste 35 Nordeste 0 -- -- 29
2020-10-31 08:00:00 26.5 27 Nordeste 47 Nordeste 0 -- -- 32
2020-10-31 07:00:00 25.5 30 Nordeste 48 Nordeste 0 -- -- 36
2020-10-31 06:00:00 25.3 26 Nordeste 38 Nordeste 0 -- -- 38
2020-10-31 05:00:00 25.3 21 Nordeste 44 Nordeste 0 -- -- 37
2020-10-31 04:00:00 25.3 18 Nordeste 66 Nordeste 0 -- -- 37
2020-10-31 03:00:00 25.2 35 Nordeste 66 Nordeste 0 -- -- 40
2020-10-31 02:00:00 25.5 35 Nordeste 64 Nordeste 0 -- -- 39
2020-10-31 01:00:00 25.8 37 Nordeste 83 Nordeste 0 -- -- 40
2020-10-31 00:00:00 26.1 32 Nordeste 54 Nordeste 0 -- -- 36
2020-10-30 23:00:00 26.2 24 Nordeste 45 Nordeste 0 -- -- 37
2020-10-30 22:00:00 27.8 22 Nordeste 43 Nordeste 0 -- -- 27
2020-10-30 21:00:00 28.5 23 Nordeste 45 Nordeste 0 -- -- 25
2020-10-30 20:00:00 27.8 14 Norte 27 Nordeste 0 -- -- 23
2020-10-30 19:00:00 28.1 13 Norte 31 Nordeste 0 -- -- 21
2020-10-30 18:00:00 29.4 11 Nordeste 21 Nordeste 0 -- -- 19
2020-10-30 17:00:00 29.5 12 Nordeste 23 Este 0 -- -- 19
2020-10-30 16:00:00 27.6 2 Sudeste 12 Sudeste 0 -- -- 38
2020-10-30 15:00:00 25.3 7 Sudeste 10 Sudeste 0 -- -- 41
2020-10-30 14:00:00 25.8 3 Este 6 Este 0 -- -- 34
2020-10-30 13:00:00 25.3 4 Este 16 Nordeste 0 -- -- 41
2020-10-30 12:00:00 24.4 12 Este 22 Este 0 -- -- 41
2020-10-30 11:00:00 24.2 15 Este 33 Este 0 -- -- 44
2020-10-30 10:00:00 24.1 21 Este 33 Este 0 -- -- 48
2020-10-30 09:00:00 24 18 Nordeste 33 Nordeste 0 -- -- 51
2020-10-30 08:00:00 23.7 12 Nordeste 21 Nordeste 0 -- -- 49
2020-10-30 07:00:00 19.1 12 Norte 17 Norte 0 -- -- 75
2020-10-30 06:00:00 18.7 13 Nordeste 16 Nordeste 0 -- -- 77
2020-10-30 05:00:00 18.7 12 Nordeste 16 Nordeste 0 -- -- 79
2020-10-30 04:00:00 18.5 11 Nordeste 17 Nordeste 0 -- -- 80
2020-10-30 03:00:00 20 13 Nordeste 19 Nordeste 0 -- -- 74
2020-10-30 02:00:00 19.3 12 Nordeste 18 Norte 0 -- -- 72
2020-10-30 01:00:00 19.4 9 Nordeste 12 Nordeste 0 -- -- 75
2020-10-30 00:00:00 19.5 8 Nordeste 12 Norte 0 -- -- 80
2020-10-29 23:00:00 20.9 7 Norte 12 Norte 0 -- -- 77
2020-10-29 22:00:00 21.4 9 Nordeste 19 Norte 0 -- -- 76
2020-10-29 21:00:00 21.9 12 Norte 21 Norte 0 -- -- 74
2020-10-29 20:00:00 22.1 10 Nordeste 20 Norte 0 -- -- 74
2020-10-29 19:00:00 23 11 Norte 19 Norte 0 -- -- 71
2020-10-29 18:00:00 23.4 4 Sudoeste 21 Norte 0 -- -- 73
2020-10-29 17:00:00 23.8 14 Nordeste 21 Nordeste 0 -- -- 69
2020-10-29 16:00:00 24.3 5 Sudoeste 23 Sudeste 0 -- -- 71
2020-10-29 15:00:00 24.9 9 Sudoeste 27 Nordeste 0 -- -- 67
2020-10-29 14:00:00 25.6 14 Nordeste 34 Este 0 -- -- 61
2020-10-29 13:00:00 23.9 22 Este 39 Este 0 -- -- 70
2020-10-29 12:00:00 24 15 Este 29 Sudeste 0 -- -- 68
2020-10-29 11:00:00 24.4 9 Nordeste 23 Norte 0 -- -- 65
2020-10-29 10:00:00 23 16 Nordeste 30 Nordeste 0 -- -- 66
2020-10-29 09:00:00 21.4 18 Nordeste 32 Norte 0 -- -- 73
2020-10-29 08:00:00 18 10 Nordeste 17 Nordeste 0 -- -- 83
2020-10-29 07:00:00 17.1 8 Nordeste 15 Nordeste 0 -- -- 83
2020-10-29 06:00:00 17.2 9 Nordeste 13 Nordeste 0 -- -- 82
2020-10-29 05:00:00 17.2 10 Nordeste 15 Nordeste 0 -- -- 81
2020-10-29 04:00:00 17.5 9 Nordeste 12 Nordeste 0 -- -- 79
2020-10-29 03:00:00 18 8 Nordeste 12 Nordeste 0 -- -- 76
2020-10-29 02:00:00 18.7 5 Nordeste 14 Nordeste 0 -- -- 75
2020-10-29 01:00:00 20.1 9 Norte 17 Norte 0 -- -- 69
2020-10-29 00:00:00 20.4 9 Norte 17 Norte 0 -- -- 72
2020-10-28 23:00:00 20.5 6 Norte 22 Norte 0 -- -- 72
2020-10-28 22:00:00 20.9 17 Nordeste 24 Nordeste 0 -- -- 72
2020-10-28 21:00:00 21.1 15 Nordeste 23 Nordeste 0 -- -- 73
2020-10-28 20:00:00 21.2 18 Nordeste 31 Nordeste 0 -- -- 70
2020-10-28 19:00:00 21.4 17 Nordeste 26 Nordeste 0 -- -- 69
2020-10-28 18:00:00 21.8 18 Nordeste 32 Nordeste 0 -- -- 64
2020-10-28 17:00:00 22.5 19 Nordeste 33 Nordeste 0 -- -- 61
2020-10-28 16:00:00 22.7 18 Nordeste 57 Este 0 -- -- 62
2020-10-28 15:00:00 22.3 19 Este 33 Nordeste 0 -- -- 63
2020-10-28 14:00:00 22.9 23 Nordeste 38 Nordeste 0 -- -- 59
2020-10-28 13:00:00 23.5 22 Nordeste 35 Norte 0 -- -- 56
2020-10-28 12:00:00 23 20 Nordeste 33 Nordeste 0 -- -- 55
2020-10-28 11:00:00 23 17 Nordeste 28 Norte 0 -- -- 52
2020-10-28 10:00:00 21.7 10 Norte 26 Norte 0 -- -- 62
2020-10-28 09:00:00 21.3 17 Nordeste 26 Norte 0 -- -- 61
2020-10-28 08:00:00 20 14 Norte 25 Noroeste 0 -- -- 71
2020-10-28 07:00:00 20.3 9 Norte 21 Noroeste 0 -- -- 68
2020-10-28 06:00:00 20 10 Norte 25 Norte 0 -- -- 70
2020-10-28 05:00:00 20.9 10 Norte 23 Nordeste 0 -- -- 60
2020-10-28 04:00:00 21 9 Norte 25 Norte 0 -- -- 57
2020-10-28 03:00:00 21 11 Norte 23 Norte 0 -- -- 62
2020-10-28 02:00:00 20.7 7 Norte 18 Norte 0 -- -- 67
2020-10-28 01:00:00 20.5 9 Noroeste 25 Nordeste 0 -- -- 70
2020-10-28 00:00:00 20.9 8 Norte 18 Norte 0 -- -- 65
2020-10-27 23:00:00 20.8 12 Norte 20 Nordeste 0 -- -- 65
2020-10-27 22:00:00 20.9 10 Norte 19 Norte 0 -- -- 62
2020-10-27 21:00:00 20.9 11 Norte 22 Norte 0 -- -- 61
2020-10-27 20:00:00 21.7 16 Nordeste 26 Nordeste 0 -- -- 57
2020-10-27 19:00:00 21.5 19 Nordeste 28 Nordeste 0 -- -- 66
2020-10-27 18:00:00 22 20 Nordeste 32 Nordeste 0 -- -- 61
2020-10-27 17:00:00 22.4 21 Nordeste 36 Este 0 -- -- 62
2020-10-27 16:00:00 22.7 19 Nordeste 37 Nordeste 0 -- -- 62
2020-10-27 15:00:00 22.6 22 Nordeste 40 Este 0 -- -- 65
2020-10-27 14:00:00 22.9 24 Este 50 Este 0 -- -- 61
2020-10-27 13:00:00 22.5 24 Este 45 Este 0 -- -- 64
2020-10-27 12:00:00 24 18 Nordeste 33 Nordeste 0 -- -- 54
2020-10-27 11:00:00 23 19 Nordeste 32 Nordeste 0 -- -- 61
2020-10-27 10:00:00 22.7 19 Nordeste 29 Nordeste 0 -- -- 61
2020-10-27 09:00:00 20.9 7 Nordeste 14 Norte 0 -- -- 74
2020-10-27 08:00:00 18.2 5 Nordeste 14 Nordeste 0 -- -- 81
2020-10-27 07:00:00 17.7 7 Nordeste 13 Nordeste 0 -- -- 81
2020-10-27 06:00:00 17.9 8 Nordeste 13 Nordeste 0 -- -- 81
2020-10-27 05:00:00 18.4 9 Nordeste 13 Nordeste 0 -- -- 81
2020-10-27 04:00:00 18.6 5 Nordeste 13 Nordeste 0 -- -- 81
2020-10-27 03:00:00 20 7 Norte 16 Nordeste 0 -- -- 76
2020-10-27 02:00:00 20.4 8 Norte 15 Norte 0 -- -- 76
2020-10-27 01:00:00 20.7 9 Nordeste 24 Nordeste 0 -- -- 77
2020-10-27 00:00:00 21.3 15 Nordeste 24 Nordeste 0 -- -- 76
2020-10-26 23:00:00 21.6 10 Norte 19 Nordeste 0 -- -- 76
2020-10-26 22:00:00 21.1 10 Nordeste 15 Norte 0 -- -- 74
2020-10-26 21:00:00 21.4 10 Nordeste 21 Nordeste 0 -- -- 75
2020-10-26 20:00:00 21.6 15 Nordeste 25 Nordeste 0 -- -- 72
2020-10-26 19:00:00 21.9 18 Nordeste 29 Nordeste 0 -- -- 68
2020-10-26 18:00:00 22.5 20 Nordeste 32 Nordeste 0 -- -- 64
2020-10-26 17:00:00 23.1 23 Nordeste 37 Norte 0 -- -- 62
2020-10-26 16:00:00 23.7 20 Nordeste 36 Este 0 -- -- 62
2020-10-26 15:00:00 23.9 19 Nordeste 36 Nordeste 0 -- -- 60
2020-10-26 14:00:00 24.1 21 Nordeste 33 Nordeste 0 -- -- 58
2020-10-26 13:00:00 24.1 19 Nordeste 40 Nordeste 0 -- -- 57
2020-10-26 12:00:00 23.5 22 Nordeste 40 Nordeste 0 -- -- 60
2020-10-26 11:00:00 23 24 Nordeste 39 Nordeste 0 -- -- 60
2020-10-26 10:00:00 22.4 23 Nordeste 40 Nordeste 0 -- -- 62
2020-10-26 09:00:00 21.5 22 Nordeste 33 Nordeste 0 -- -- 66
2020-10-26 08:00:00 20.4 18 Nordeste 29 Nordeste 0 -- -- 70
2020-10-26 07:00:00 20 14 Nordeste 25 Nordeste 0 -- -- 72
2020-10-26 06:00:00 19.9 16 Nordeste 25 Nordeste 0 -- -- 72
2020-10-26 05:00:00 19.9 14 Nordeste 27 Nordeste 0 -- -- 73
2020-10-26 04:00:00 19.9 15 Nordeste 26 Nordeste 0 -- -- 72
2020-10-26 03:00:00 20.1 19 Nordeste 30 Nordeste 0 -- -- 71
2020-10-26 02:00:00 20 13 Nordeste 27 Nordeste 0 -- -- 72
2020-10-26 01:00:00 20.1 14 Nordeste 30 Nordeste 0 -- -- 72
2020-10-26 00:00:00 20.4 16 Nordeste 28 Norte 0 -- -- 71
2020-10-25 23:00:00 20.6 15 Nordeste 27 Norte 0 -- -- 70
2020-10-25 22:00:00 20.8 16 Nordeste 30 Nordeste 0 -- -- 71
2020-10-25 21:00:00 21 21 Nordeste 31 Nordeste 0 -- -- 71
2020-10-25 20:00:00 21.2 17 Nordeste 32 Nordeste 0 -- -- 69
2020-10-25 19:00:00 21.3 15 Nordeste 29 Nordeste 0 -- -- 68
2020-10-25 18:00:00 21.8 22 Nordeste 37 Nordeste 0 -- -- 67
2020-10-25 17:00:00 22.6 23 Nordeste 37 Nordeste 0 -- -- 65
2020-10-25 16:00:00 23.2 24 Nordeste 39 Este 0 -- -- 63
2020-10-25 15:00:00 23 19 Este 34 Este 0 -- -- 65
2020-10-25 14:00:00 23.5 17 Nordeste 30 Este 0 -- -- 61
2020-10-25 13:00:00 24 19 Nordeste 33 Nordeste 0 -- -- 57
2020-10-25 12:00:00 23.9 18 Nordeste 37 Norte 0 -- -- 57
2020-10-25 11:00:00 23.4 23 Nordeste 37 Nordeste 0 -- -- 56
2020-10-25 10:00:00 22.7 23 Nordeste 34 Norte 0 -- -- 60
2020-10-25 09:00:00 21.6 22 Nordeste 38 Nordeste 0 -- -- 66
2020-10-25 08:00:00 20 15 Norte 27 Norte 0 -- -- 71
2020-10-25 07:00:00 19.5 14 Norte 28 Norte 0 -- -- 72
2020-10-25 06:00:00 19.7 13 Norte 24 Nordeste 0 -- -- 72
2020-10-25 05:00:00 19.8 13 Norte 27 Nordeste 0 -- -- 71
2020-10-25 04:00:00 20.2 16 Nordeste 30 Nordeste 0 -- -- 71
2020-10-25 03:00:00 20.1 15 Nordeste 26 Nordeste 0 -- -- 72
2020-10-25 02:00:00 20.2 14 Nordeste 27 Norte 0 -- -- 74
2020-10-25 01:00:00 20.4 18 Nordeste 32 Nordeste 0 -- -- 73
2020-10-25 00:00:00 20.7 18 Nordeste 32 Nordeste 0 -- -- 74